sensor_id;sensor_type;location;lat;lon;timestamp;pressure;altitude;pressure_sealevel;temperature;humidity
71165;BME280;58859;55.132;-1.586;2023-08-31T00:00:29;100433.78;;;21.56;100.00
71165;BME280;58859;55.132;-1.586;2023-08-31T00:02:56;100422.75;;;21.30;100.00
71165;BME280;58859;55.132;-1.586;2023-08-31T00:05:22;100421.97;;;20.56;100.00
71165;BME280;58859;55.132;-1.586;2023-08-31T00:07:50;100425.94;;;21.02;100.00
71165;BME280;58859;55.132;-1.586;2023-08-31T00:10:16;100420.53;;;21.27;100.00
71165;BME280;58859;55.132;-1.586;2023-08-31T00:12:42;100418.06;;;21.43;100.00
71165;BME280;58859;55.132;-1.586;2023-08-31T00:15:08;100415.13;;;21.22;100.00
71165;BME280;58859;55.132;-1.586;2023-08-31T00:17:34;100420.06;;;21.48;100.00
71165;BME280;58859;55.132;-1.586;2023-08-31T00:20:00;100421.44;;;21.50;100.00
71165;BME280;58859;55.132;-1.586;2023-08-31T00:22:25;100411.84;;;21.38;100.00
71165;BME280;58859;55.132;-1.586;2023-08-31T00:24:50;100418.19;;;21.37;100.00
71165;BME280;58859;55.132;-1.586;2023-08-31T00:27:16;100414.16;;;21.34;100.00
71165;BME280;58859;55.132;-1.586;2023-08-31T00:29:42;100415.75;;;21.35;100.00
71165;BME280;58859;55.132;-1.586;2023-08-31T00:32:11;100408.13;;;21.27;100.00
71165;BME280;58859;55.132;-1.586;2023-08-31T00:34:36;100410.06;;;20.23;100.00
71165;BME280;58859;55.132;-1.586;2023-08-31T00:37:02;100420.09;;;19.89;100.00
71165;BME280;58859;55.132;-1.586;2023-08-31T00:39:28;100420.66;;;20.66;100.00
71165;BME280;58859;55.132;-1.586;2023-08-31T00:41:53;100408.88;;;20.98;100.00
71165;BME280;58859;55.132;-1.586;2023-08-31T00:44:18;100403.38;;;20.99;100.00
71165;BME280;58859;55.132;-1.586;2023-08-31T00:46:44;100375.63;;;20.72;100.00
71165;BME280;58859;55.132;-1.586;2023-08-31T00:49:10;100408.00;;;20.68;100.00
71165;BME280;58859;55.132;-1.586;2023-08-31T00:51:36;100406.97;;;20.50;100.00
71165;BME280;58859;55.132;-1.586;2023-08-31T00:54:02;100408.75;;;20.56;100.00
71165;BME280;58859;55.132;-1.586;2023-08-31T00:56:29;100403.19;;;20.83;100.00
71165;BME280;58859;55.132;-1.586;2023-08-31T00:58:55;100404.78;;;20.84;100.00
71165;BME280;58859;55.132;-1.586;2023-08-31T01:07:02;100410.59;;;20.74;100.00
71165;BME280;58859;55.132;-1.586;2023-08-31T01:12:07;100408.47;;;20.83;100.00
71165;BME280;58859;55.132;-1.586;2023-08-31T01:14:42;100405.53;;;20.54;100.00
71165;BME280;58859;55.132;-1.586;2023-08-31T01:17:08;100410.72;;;20.43;100.00
71165;BME280;58859;55.132;-1.586;2023-08-31T01:19:44;100403.00;;;20.17;100.00
71165;BME280;58859;55.132;-1.586;2023-08-31T01:24:59;100408.28;;;20.41;100.00
71165;BME280;58859;55.132;-1.586;2023-08-31T01:27:31;100405.78;;;20.22;100.00
71165;BME280;58859;55.132;-1.586;2023-08-31T01:29:57;100410.00;;;20.29;100.00
71165;BME280;58859;55.132;-1.586;2023-08-31T01:32:23;100414.84;;;20.57;100.00
71165;BME280;58859;55.132;-1.586;2023-08-31T01:34:50;100418.59;;;20.00;100.00
71165;BME280;58859;55.132;-1.586;2023-08-31T01:37:24;100414.66;;;20.52;100.00
71165;BME280;58859;55.132;-1.586;2023-08-31T01:39:58;100411.88;;;20.47;100.00
71165;BME280;58859;55.132;-1.586;2023-08-31T01:42:27;100419.66;;;20.42;100.00
71165;BME280;58859;55.132;-1.586;2023-08-31T01:44:55;100417.03;;;20.42;100.00
71165;BME280;58859;55.132;-1.586;2023-08-31T01:47:22;100415.53;;;19.72;100.00
71165;BME280;58859;55.132;-1.586;2023-08-31T01:49:48;100401.44;;;20.09;100.00
71165;BME280;58859;55.132;-1.586;2023-08-31T01:52:14;100403.72;;;20.05;100.00
71165;BME280;58859;55.132;-1.586;2023-08-31T01:54:39;100404.72;;;20.29;100.00
71165;BME280;58859;55.132;-1.586;2023-08-31T01:57:04;100406.38;;;20.24;100.00
71165;BME280;58859;55.132;-1.586;2023-08-31T01:59:31;100402.31;;;20.28;100.00
71165;BME280;58859;55.132;-1.586;2023-08-31T02:01:57;100404.97;;;20.28;100.00
71165;BME280;58859;55.132;-1.586;2023-08-31T02:04:23;100411.88;;;20.29;100.00
71165;BME280;58859;55.132;-1.586;2023-08-31T02:06:48;100405.66;;;19.92;100.00
71165;BME280;58859;55.132;-1.586;2023-08-31T02:09:14;100402.91;;;19.80;100.00
71165;BME280;58859;55.132;-1.586;2023-08-31T02:11:39;100406.00;;;19.71;100.00
71165;BME280;58859;55.132;-1.586;2023-08-31T02:14:05;100409.41;;;20.02;100.00
71165;BME280;58859;55.132;-1.586;2023-08-31T02:16:31;100397.47;;;19.44;100.00
71165;BME280;58859;55.132;-1.586;2023-08-31T02:18:57;100416.84;;;17.82;100.00
71165;BME280;58859;55.132;-1.586;2023-08-31T02:21:22;100402.88;;;19.05;100.00
71165;BME280;58859;55.132;-1.586;2023-08-31T02:23:48;100407.41;;;19.73;100.00
71165;BME280;58859;55.132;-1.586;2023-08-31T02:26:13;100417.44;;;19.89;100.00
71165;BME280;58859;55.132;-1.586;2023-08-31T02:28:39;100414.31;;;19.99;100.00
71165;BME280;58859;55.132;-1.586;2023-08-31T02:31:04;100408.44;;;19.97;100.00
71165;BME280;58859;55.132;-1.586;2023-08-31T02:33:29;100411.53;;;19.94;100.00
71165;BME280;58859;55.132;-1.586;2023-08-31T02:35:55;100421.09;;;18.29;100.00
71165;BME280;58859;55.132;-1.586;2023-08-31T02:38:21;100412.50;;;19.30;100.00
71165;BME280;58859;55.132;-1.586;2023-08-31T02:40:47;100421.22;;;18.86;100.00
71165;BME280;58859;55.132;-1.586;2023-08-31T02:43:13;100414.72;;;19.33;100.00
71165;BME280;58859;55.132;-1.586;2023-08-31T02:45:39;100419.72;;;19.04;100.00
71165;BME280;58859;55.132;-1.586;2023-08-31T02:48:06;100410.50;;;18.75;100.00
71165;BME280;58859;55.132;-1.586;2023-08-31T02:50:33;100426.97;;;18.31;100.00
71165;BME280;58859;55.132;-1.586;2023-08-31T02:52:59;100429.56;;;17.11;100.00
71165;BME280;58859;55.132;-1.586;2023-08-31T02:55:24;100427.59;;;18.07;100.00
71165;BME280;58859;55.132;-1.586;2023-08-31T02:57:49;100420.09;;;19.07;100.00
71165;BME280;58859;55.132;-1.586;2023-08-31T03:00:15;100427.41;;;19.05;100.00
71165;BME280;58859;55.132;-1.586;2023-08-31T03:02:41;100432.09;;;19.03;100.00
71165;BME280;58859;55.132;-1.586;2023-08-31T03:05:09;100421.00;;;19.39;100.00
71165;BME280;58859;55.132;-1.586;2023-08-31T03:07:34;100416.94;;;19.36;100.00
71165;BME280;58859;55.132;-1.586;2023-08-31T03:09:59;100421.56;;;19.47;100.00
71165;BME280;58859;55.132;-1.586;2023-08-31T03:12:25;100422.44;;;18.84;100.00
71165;BME280;58859;55.132;-1.586;2023-08-31T03:14:50;100417.06;;;18.07;100.00
71165;BME280;58859;55.132;-1.586;2023-08-31T03:17:16;100421.69;;;19.21;100.00
71165;BME280;58859;55.132;-1.586;2023-08-31T03:19:41;100426.41;;;19.50;100.00
71165;BME280;58859;55.132;-1.586;2023-08-31T03:22:06;100416.38;;;19.28;100.00
71165;BME280;58859;55.132;-1.586;2023-08-31T03:24:32;100416.13;;;19.42;100.00
71165;BME280;58859;55.132;-1.586;2023-08-31T03:26:58;100410.75;;;19.18;100.00
71165;BME280;58859;55.132;-1.586;2023-08-31T03:29:23;100426.03;;;19.47;100.00
71165;BME280;58859;55.132;-1.586;2023-08-31T03:31:49;100422.00;;;19.38;100.00
71165;BME280;58859;55.132;-1.586;2023-08-31T03:34:14;100414.53;;;19.28;100.00
71165;BME280;58859;55.132;-1.586;2023-08-31T03:36:40;100416.03;;;19.11;100.00
71165;BME280;58859;55.132;-1.586;2023-08-31T03:39:06;100420.25;;;19.25;100.00
71165;BME280;58859;55.132;-1.586;2023-08-31T03:41:32;100405.91;;;19.15;100.00
71165;BME280;58859;55.132;-1.586;2023-08-31T03:43:57;100422.97;;;19.06;100.00
71165;BME280;58859;55.132;-1.586;2023-08-31T03:46:22;100423.25;;;19.35;100.00
71165;BME280;58859;55.132;-1.586;2023-08-31T03:48:49;100427.91;;;19.40;100.00
71165;BME280;58859;55.132;-1.586;2023-08-31T03:51:14;100424.66;;;19.38;100.00
71165;BME280;58859;55.132;-1.586;2023-08-31T03:53:40;100427.88;;;19.46;100.00
71165;BME280;58859;55.132;-1.586;2023-08-31T03:56:05;100418.56;;;19.37;100.00
71165;BME280;58859;55.132;-1.586;2023-08-31T03:58:31;100419.91;;;19.09;100.00
71165;BME280;58859;55.132;-1.586;2023-08-31T04:00:56;100424.34;;;19.15;100.00
71165;BME280;58859;55.132;-1.586;2023-08-31T04:03:22;100429.53;;;18.90;100.00
71165;BME280;58859;55.132;-1.586;2023-08-31T04:05:53;100428.66;;;18.96;100.00
71165;BME280;58859;55.132;-1.586;2023-08-31T04:08:19;100420.22;;;18.81;100.00
71165;BME280;58859;55.132;-1.586;2023-08-31T04:10:44;100433.25;;;18.50;100.00
71165;BME280;58859;55.132;-1.586;2023-08-31T04:13:09;100399.84;;;17.98;100.00
71165;BME280;58859;55.132;-1.586;2023-08-31T04:15:35;100437.94;;;17.35;100.00
71165;BME280;58859;55.132;-1.586;2023-08-31T04:18:00;100438.22;;;17.53;100.00
71165;BME280;58859;55.132;-1.586;2023-08-31T04:20:25;100434.06;;;18.50;100.00
71165;BME280;58859;55.132;-1.586;2023-08-31T04:22:51;100440.06;;;18.90;100.00
71165;BME280;58859;55.132;-1.586;2023-08-31T04:25:16;100444.53;;;18.76;100.00
71165;BME280;58859;55.132;-1.586;2023-08-31T04:27:42;100439.63;;;18.93;100.00
71165;BME280;58859;55.132;-1.586;2023-08-31T04:30:08;100449.22;;;18.74;100.00
71165;BME280;58859;55.132;-1.586;2023-08-31T04:32:34;100438.69;;;18.74;100.00
71165;BME280;58859;55.132;-1.586;2023-08-31T04:35:01;100440.06;;;18.83;100.00
71165;BME280;58859;55.132;-1.586;2023-08-31T04:37:26;100444.81;;;18.55;100.00
71165;BME280;58859;55.132;-1.586;2023-08-31T04:39:52;100442.44;;;16.93;100.00
71165;BME280;58859;55.132;-1.586;2023-08-31T04:42:17;100422.72;;;17.84;100.00
71165;BME280;58859;55.132;-1.586;2023-08-31T04:44:43;100427.16;;;18.16;100.00
71165;BME280;58859;55.132;-1.586;2023-08-31T04:47:08;100439.72;;;16.80;100.00
71165;BME280;58859;55.132;-1.586;2023-08-31T04:49:34;100442.81;;;17.31;100.00
71165;BME280;58859;55.132;-1.586;2023-08-31T04:51:59;100442.94;;;17.84;100.00
71165;BME280;58859;55.132;-1.586;2023-08-31T04:54:24;100445.41;;;18.64;100.00
71165;BME280;58859;55.132;-1.586;2023-08-31T04:56:50;100437.91;;;18.61;100.00
71165;BME280;58859;55.132;-1.586;2023-08-31T04:59:16;100438.72;;;18.55;100.00
71165;BME280;58859;55.132;-1.586;2023-08-31T05:01:41;100444.63;;;18.50;100.00
71165;BME280;58859;55.132;-1.586;2023-08-31T05:04:06;100444.41;;;18.58;100.00
71165;BME280;58859;55.132;-1.586;2023-08-31T05:06:32;100436.50;;;18.52;100.00
71165;BME280;58859;55.132;-1.586;2023-08-31T05:08:57;100449.84;;;18.63;100.00
71165;BME280;58859;55.132;-1.586;2023-08-31T05:11:23;100438.09;;;18.66;100.00
71165;BME280;58859;55.132;-1.586;2023-08-31T05:13:48;100450.66;;;18.37;100.00
71165;BME280;58859;55.132;-1.586;2023-08-31T05:16:14;100452.66;;;18.75;100.00
71165;BME280;58859;55.132;-1.586;2023-08-31T05:18:39;100458.16;;;18.67;100.00
71165;BME280;58859;55.132;-1.586;2023-08-31T05:21:06;100457.16;;;18.35;100.00
71165;BME280;58859;55.132;-1.586;2023-08-31T05:23:31;100461.59;;;18.54;100.00
71165;BME280;58859;55.132;-1.586;2023-08-31T05:25:57;100452.47;;;18.63;100.00
71165;BME280;58859;55.132;-1.586;2023-08-31T05:28:23;100439.53;;;18.55;100.00
71165;BME280;58859;55.132;-1.586;2023-08-31T05:30:50;100453.09;;;18.19;100.00
71165;BME280;58859;55.132;-1.586;2023-08-31T05:33:16;100454.69;;;18.33;100.00
71165;BME280;58859;55.132;-1.586;2023-08-31T05:35:42;100458.63;;;19.21;100.00
71165;BME280;58859;55.132;-1.586;2023-08-31T05:38:07;100471.97;;;16.67;100.00
71165;BME280;58859;55.132;-1.586;2023-08-31T05:40:33;100473.53;;;16.34;100.00
71165;BME280;58859;55.132;-1.586;2023-08-31T05:42:58;100459.56;;;16.55;100.00
71165;BME280;58859;55.132;-1.586;2023-08-31T05:45:23;100467.78;;;17.61;100.00
71165;BME280;58859;55.132;-1.586;2023-08-31T05:47:49;100469.75;;;19.68;100.00
71165;BME280;58859;55.132;-1.586;2023-08-31T05:50:14;100466.22;;;17.87;100.00
71165;BME280;58859;55.132;-1.586;2023-08-31T05:52:40;100477.41;;;18.02;100.00
71165;BME280;58859;55.132;-1.586;2023-08-31T05:55:10;100477.13;;;15.34;100.00
71165;BME280;58859;55.132;-1.586;2023-08-31T05:57:35;100481.47;;;17.03;100.00
71165;BME280;58859;55.132;-1.586;2023-08-31T06:00:03;100468.09;;;19.29;100.00
71165;BME280;58859;55.132;-1.586;2023-08-31T06:02:29;100474.75;;;20.81;100.00
71165;BME280;58859;55.132;-1.586;2023-08-31T06:04:54;100464.53;;;21.69;100.00
71165;BME280;58859;55.132;-1.586;2023-08-31T06:07:20;100473.44;;;23.09;100.00
71165;BME280;58859;55.132;-1.586;2023-08-31T06:09:45;100470.63;;;23.67;100.00
71165;BME280;58859;55.132;-1.586;2023-08-31T06:12:11;100470.03;;;23.65;100.00
71165;BME280;58859;55.132;-1.586;2023-08-31T06:14:36;100474.03;;;21.29;100.00
71165;BME280;58859;55.132;-1.586;2023-08-31T06:17:01;100475.59;;;18.61;100.00
71165;BME280;58859;55.132;-1.586;2023-08-31T06:19:28;100486.47;;;18.84;100.00
71165;BME280;58859;55.132;-1.586;2023-08-31T06:21:53;100470.47;;;21.53;100.00
71165;BME280;58859;55.132;-1.586;2023-08-31T06:24:18;100485.03;;;20.46;100.00
71165;BME280;58859;55.132;-1.586;2023-08-31T06:26:44;100477.97;;;22.62;100.00
71165;BME280;58859;55.132;-1.586;2023-08-31T06:29:09;100479.53;;;23.21;100.00
71165;BME280;58859;55.132;-1.586;2023-08-31T06:31:36;100467.41;;;24.26;100.00
71165;BME280;58859;55.132;-1.586;2023-08-31T06:34:01;100476.25;;;23.87;100.00
71165;BME280;58859;55.132;-1.586;2023-08-31T06:36:27;100484.78;;;23.04;100.00
71165;BME280;58859;55.132;-1.586;2023-08-31T06:38:53;100484.91;;;20.84;100.00
71165;BME280;58859;55.132;-1.586;2023-08-31T06:41:18;100488.13;;;18.46;100.00
71165;BME280;58859;55.132;-1.586;2023-08-31T06:43:43;100482.94;;;21.16;100.00
71165;BME280;58859;55.132;-1.586;2023-08-31T06:46:09;100469.56;;;22.76;100.00
71165;BME280;58859;55.132;-1.586;2023-08-31T06:48:34;100480.38;;;21.28;100.00
71165;BME280;58859;55.132;-1.586;2023-08-31T06:51:00;100487.34;;;20.61;100.00
71165;BME280;58859;55.132;-1.586;2023-08-31T06:53:28;100493.75;;;20.22;100.00
71165;BME280;58859;55.132;-1.586;2023-08-31T06:55:54;100491.03;;;20.60;100.00
71165;BME280;58859;55.132;-1.586;2023-08-31T06:58:19;100497.25;;;20.47;100.00
71165;BME280;58859;55.132;-1.586;2023-08-31T07:00:45;100493.41;;;20.68;100.00
71165;BME280;58859;55.132;-1.586;2023-08-31T07:03:12;100493.88;;;20.58;100.00
71165;BME280;58859;55.132;-1.586;2023-08-31T07:05:41;100494.13;;;21.18;100.00
71165;BME280;58859;55.132;-1.586;2023-08-31T07:08:07;100492.34;;;21.60;100.00
71165;BME280;58859;55.132;-1.586;2023-08-31T07:10:33;100490.66;;;21.65;100.00
71165;BME280;58859;55.132;-1.586;2023-08-31T07:13:01;100491.66;;;21.53;100.00
71165;BME280;58859;55.132;-1.586;2023-08-31T07:15:27;100486.69;;;21.45;100.00
71165;BME280;58859;55.132;-1.586;2023-08-31T07:17:52;100481.28;;;21.51;100.00
71165;BME280;58859;55.132;-1.586;2023-08-31T07:20:17;100488.63;;;22.09;100.00
71165;BME280;58859;55.132;-1.586;2023-08-31T07:22:43;100493.47;;;21.70;100.00
71165;BME280;58859;55.132;-1.586;2023-08-31T07:25:08;100489.09;;;22.06;100.00
71165;BME280;58859;55.132;-1.586;2023-08-31T07:27:35;100484.75;;;21.82;100.00
71165;BME280;58859;55.132;-1.586;2023-08-31T07:30:00;100488.34;;;22.52;100.00
71165;BME280;58859;55.132;-1.586;2023-08-31T07:32:25;100491.38;;;21.72;100.00
71165;BME280;58859;55.132;-1.586;2023-08-31T07:34:51;100497.16;;;21.81;100.00
71165;BME280;58859;55.132;-1.586;2023-08-31T07:37:16;100491.78;;;22.29;100.00
71165;BME280;58859;55.132;-1.586;2023-08-31T07:39:42;100487.53;;;23.09;100.00
71165;BME280;58859;55.132;-1.586;2023-08-31T07:42:07;100499.97;;;22.51;100.00
71165;BME280;58859;55.132;-1.586;2023-08-31T07:44:33;100498.56;;;22.13;100.00
71165;BME280;58859;55.132;-1.586;2023-08-31T07:46:58;100494.63;;;23.72;100.00
71165;BME280;58859;55.132;-1.586;2023-08-31T07:49:24;100491.00;;;24.23;100.00
71165;BME280;58859;55.132;-1.586;2023-08-31T07:51:49;100506.47;;;24.26;100.00
71165;BME280;58859;55.132;-1.586;2023-08-31T07:54:21;100500.63;;;23.67;100.00
71165;BME280;58859;55.132;-1.586;2023-08-31T07:56:47;100511.13;;;24.19;100.00
71165;BME280;58859;55.132;-1.586;2023-08-31T07:59:12;100507.00;;;24.61;100.00
71165;BME280;58859;55.132;-1.586;2023-08-31T08:01:37;100508.34;;;25.62;100.00
71165;BME280;58859;55.132;-1.586;2023-08-31T08:04:03;100480.56;;;25.80;100.00
71165;BME280;58859;55.132;-1.586;2023-08-31T08:06:28;100503.94;;;25.99;100.00
71165;BME280;58859;55.132;-1.586;2023-08-31T08:08:54;100500.81;;;26.39;100.00
71165;BME280;58859;55.132;-1.586;2023-08-31T08:11:22;100497.47;;;26.59;100.00
71165;BME280;58859;55.132;-1.586;2023-08-31T08:13:47;100498.41;;;26.43;100.00
71165;BME280;58859;55.132;-1.586;2023-08-31T08:16:13;100495.97;;;26.73;100.00
71165;BME280;58859;55.132;-1.586;2023-08-31T08:18:39;100503.84;;;26.16;100.00
71165;BME280;58859;55.132;-1.586;2023-08-31T08:21:05;100509.22;;;26.26;100.00
71165;BME280;58859;55.132;-1.586;2023-08-31T08:23:30;100507.47;;;25.35;100.00
71165;BME280;58859;55.132;-1.586;2023-08-31T08:25:56;100507.16;;;24.88;100.00
71165;BME280;58859;55.132;-1.586;2023-08-31T08:28:25;100502.31;;;25.71;100.00
71165;BME280;58859;55.132;-1.586;2023-08-31T08:30:50;100505.66;;;26.79;100.00
71165;BME280;58859;55.132;-1.586;2023-08-31T08:33:15;100510.06;;;27.10;100.00
71165;BME280;58859;55.132;-1.586;2023-08-31T08:35:41;100508.94;;;26.96;100.00
71165;BME280;58859;55.132;-1.586;2023-08-31T08:38:06;100505.41;;;26.91;100.00
71165;BME280;58859;55.132;-1.586;2023-08-31T08:40:32;100510.09;;;26.37;100.00
71165;BME280;58859;55.132;-1.586;2023-08-31T08:43:00;100518.03;;;24.86;100.00
71165;BME280;58859;55.132;-1.586;2023-08-31T08:45:30;100511.25;;;26.82;100.00
71165;BME280;58859;55.132;-1.586;2023-08-31T08:47:58;100510.66;;;26.75;100.00
71165;BME280;58859;55.132;-1.586;2023-08-31T08:50:24;100511.63;;;26.96;100.00
71165;BME280;58859;55.132;-1.586;2023-08-31T08:52:50;100510.38;;;26.77;100.00
71165;BME280;58859;55.132;-1.586;2023-08-31T08:55:16;100510.69;;;27.32;100.00
71165;BME280;58859;55.132;-1.586;2023-08-31T08:57:41;100508.88;;;27.43;100.00
71165;BME280;58859;55.132;-1.586;2023-08-31T09:00:07;100522.88;;;27.13;100.00
71165;BME280;58859;55.132;-1.586;2023-08-31T09:02:33;100513.00;;;26.03;100.00
71165;BME280;58859;55.132;-1.586;2023-08-31T09:04:58;100508.53;;;26.77;100.00
71165;BME280;58859;55.132;-1.586;2023-08-31T09:07:24;100515.41;;;26.68;100.00
71165;BME280;58859;55.132;-1.586;2023-08-31T09:09:53;100505.56;;;27.16;100.00
71165;BME280;58859;55.132;-1.586;2023-08-31T09:12:23;100505.78;;;27.09;100.00
71165;BME280;58859;55.132;-1.586;2023-08-31T09:15:03;100509.56;;;26.76;100.00
71165;BME280;58859;55.132;-1.586;2023-08-31T09:17:41;100510.53;;;27.02;100.00
71165;BME280;58859;55.132;-1.586;2023-08-31T09:20:09;100501.16;;;27.57;100.00
71165;BME280;58859;55.132;-1.586;2023-08-31T09:22:35;100497.44;;;26.54;100.00
71165;BME280;58859;55.132;-1.586;2023-08-31T09:25:01;100496.13;;;28.61;100.00
71165;BME280;58859;55.132;-1.586;2023-08-31T09:27:26;100488.22;;;27.23;100.00
71165;BME280;58859;55.132;-1.586;2023-08-31T09:29:54;100499.22;;;26.43;100.00
71165;BME280;58859;55.132;-1.586;2023-08-31T09:32:21;100510.16;;;26.10;100.00
71165;BME280;58859;55.132;-1.586;2023-08-31T09:34:47;100498.63;;;27.20;100.00
71165;BME280;58859;55.132;-1.586;2023-08-31T09:37:15;100495.03;;;26.52;100.00
71165;BME280;58859;55.132;-1.586;2023-08-31T09:39:41;100493.47;;;25.93;100.00
71165;BME280;58859;55.132;-1.586;2023-08-31T09:42:07;100504.16;;;24.84;100.00
71165;BME280;58859;55.132;-1.586;2023-08-31T09:44:33;100502.22;;;25.40;100.00
71165;BME280;58859;55.132;-1.586;2023-08-31T09:46:59;100501.19;;;23.97;100.00
71165;BME280;58859;55.132;-1.586;2023-08-31T09:49:25;100492.22;;;24.32;100.00
71165;BME280;58859;55.132;-1.586;2023-08-31T09:51:51;100502.00;;;24.65;100.00
71165;BME280;58859;55.132;-1.586;2023-08-31T09:54:19;100500.13;;;23.42;100.00
71165;BME280;58859;55.132;-1.586;2023-08-31T09:56:47;100486.41;;;25.77;100.00
71165;BME280;58859;55.132;-1.586;2023-08-31T09:59:14;100493.69;;;24.61;100.00
71165;BME280;58859;55.132;-1.586;2023-08-31T10:01:41;100484.63;;;24.40;100.00
71165;BME280;58859;55.132;-1.586;2023-08-31T10:04:07;100478.53;;;24.23;100.00
71165;BME280;58859;55.132;-1.586;2023-08-31T10:06:35;100484.69;;;25.97;100.00
71165;BME280;58859;55.132;-1.586;2023-08-31T10:09:01;100487.84;;;27.00;100.00
71165;BME280;58859;55.132;-1.586;2023-08-31T10:11:29;100496.22;;;25.06;100.00
71165;BME280;58859;55.132;-1.586;2023-08-31T10:13:55;100501.47;;;25.66;100.00
71165;BME280;58859;55.132;-1.586;2023-08-31T10:16:21;100493.00;;;25.47;100.00
71165;BME280;58859;55.132;-1.586;2023-08-31T10:18:48;100489.25;;;25.97;100.00
71165;BME280;58859;55.132;-1.586;2023-08-31T10:21:17;100491.22;;;25.53;100.00
71165;BME280;58859;55.132;-1.586;2023-08-31T10:23:47;100495.59;;;26.96;100.00
71165;BME280;58859;55.132;-1.586;2023-08-31T10:26:26;100491.84;;;26.18;100.00
71165;BME280;58859;55.132;-1.586;2023-08-31T10:28:52;100493.59;;;26.40;100.00
71165;BME280;58859;55.132;-1.586;2023-08-31T10:31:19;100492.66;;;27.03;100.00
71165;BME280;58859;55.132;-1.586;2023-08-31T10:33:59;100493.00;;;26.69;100.00
71165;BME280;58859;55.132;-1.586;2023-08-31T10:36:46;100495.22;;;26.41;100.00
71165;BME280;58859;55.132;-1.586;2023-08-31T10:39:13;100493.69;;;27.59;100.00
71165;BME280;58859;55.132;-1.586;2023-08-31T10:41:41;100486.34;;;26.72;100.00
71165;BME280;58859;55.132;-1.586;2023-08-31T10:44:21;100481.31;;;26.75;100.00
71165;BME280;58859;55.132;-1.586;2023-08-31T10:46:47;100488.66;;;26.58;100.00
71165;BME280;58859;55.132;-1.586;2023-08-31T10:49:14;100482.44;;;28.88;100.00
71165;BME280;58859;55.132;-1.586;2023-08-31T10:51:42;100481.53;;;27.21;100.00
71165;BME280;58859;55.132;-1.586;2023-08-31T10:57:01;100490.63;;;26.04;100.00
71165;BME280;58859;55.132;-1.586;2023-08-31T10:59:47;100484.84;;;26.44;100.00
71165;BME280;58859;55.132;-1.586;2023-08-31T11:02:41;100485.34;;;26.09;100.00
71165;BME280;58859;55.132;-1.586;2023-08-31T11:07:33;100476.50;;;26.77;100.00
71165;BME280;58859;55.132;-1.586;2023-08-31T11:10:19;100479.78;;;26.85;100.00
71165;BME280;58859;55.132;-1.586;2023-08-31T11:12:47;100464.47;;;27.37;100.00
71165;BME280;58859;55.132;-1.586;2023-08-31T11:15:13;100461.59;;;27.44;100.00
71165;BME280;58859;55.132;-1.586;2023-08-31T11:17:40;100477.81;;;26.01;100.00
71165;BME280;58859;55.132;-1.586;2023-08-31T11:20:07;100473.34;;;26.39;100.00
71165;BME280;58859;55.132;-1.586;2023-08-31T11:22:34;100463.81;;;28.17;100.00
71165;BME280;58859;55.132;-1.586;2023-08-31T11:25:03;100474.41;;;25.09;100.00
71165;BME280;58859;55.132;-1.586;2023-08-31T11:27:29;100471.28;;;26.98;100.00
71165;BME280;58859;55.132;-1.586;2023-08-31T11:29:54;100469.53;;;27.23;100.00
71165;BME280;58859;55.132;-1.586;2023-08-31T11:32:23;100484.34;;;27.61;100.00
71165;BME280;58859;55.132;-1.586;2023-08-31T11:34:50;100476.06;;;27.58;100.00
71165;BME280;58859;55.132;-1.586;2023-08-31T11:37:15;100469.91;;;27.62;100.00
71165;BME280;58859;55.132;-1.586;2023-08-31T11:39:52;100482.78;;;28.36;100.00
71165;BME280;58859;55.132;-1.586;2023-08-31T11:42:19;100477.72;;;28.14;100.00
71165;BME280;58859;55.132;-1.586;2023-08-31T11:44:49;100478.72;;;27.58;100.00
71165;BME280;58859;55.132;-1.586;2023-08-31T11:47:15;100469.97;;;27.00;100.00
71165;BME280;58859;55.132;-1.586;2023-08-31T11:49:45;100476.81;;;26.39;100.00
71165;BME280;58859;55.132;-1.586;2023-08-31T11:52:12;100481.13;;;27.54;100.00
71165;BME280;58859;55.132;-1.586;2023-08-31T11:54:42;100468.75;;;26.76;100.00
71165;BME280;58859;55.132;-1.586;2023-08-31T11:57:08;100469.69;;;26.97;100.00
71165;BME280;58859;55.132;-1.586;2023-08-31T11:59:38;100475.25;;;27.57;100.00
71165;BME280;58859;55.132;-1.586;2023-08-31T12:02:07;100469.16;;;28.32;100.00
71165;BME280;58859;55.132;-1.586;2023-08-31T12:04:33;100477.34;;;26.41;100.00
71165;BME280;58859;55.132;-1.586;2023-08-31T12:07:06;100466.28;;;26.22;100.00
71165;BME280;58859;55.132;-1.586;2023-08-31T12:09:32;100477.31;;;26.78;100.00
71165;BME280;58859;55.132;-1.586;2023-08-31T12:11:58;100481.63;;;26.10;100.00
71165;BME280;58859;55.132;-1.586;2023-08-31T12:14:26;100485.94;;;25.14;100.00
71165;BME280;58859;55.132;-1.586;2023-08-31T12:16:59;100482.75;;;26.51;100.00
71165;BME280;58859;55.132;-1.586;2023-08-31T12:19:28;100485.88;;;26.38;100.00
71165;BME280;58859;55.132;-1.586;2023-08-31T12:21:54;100492.47;;;25.72;100.00
71165;BME280;58859;55.132;-1.586;2023-08-31T12:24:21;100483.44;;;26.05;100.00
71165;BME280;58859;55.132;-1.586;2023-08-31T12:26:47;100488.75;;;25.73;100.00
71165;BME280;58859;55.132;-1.586;2023-08-31T12:29:13;100490.66;;;25.78;100.00
71165;BME280;58859;55.132;-1.586;2023-08-31T12:31:38;100487.59;;;26.59;100.00
71165;BME280;58859;55.132;-1.586;2023-08-31T12:34:04;100499.06;;;25.43;100.00
71165;BME280;58859;55.132;-1.586;2023-08-31T12:36:32;100492.94;;;26.22;100.00
71165;BME280;58859;55.132;-1.586;2023-08-31T12:38:57;100499.78;;;25.38;100.00
71165;BME280;58859;55.132;-1.586;2023-08-31T12:41:26;100491.72;;;25.77;100.00
71165;BME280;58859;55.132;-1.586;2023-08-31T12:43:52;100495.13;;;25.72;100.00